Time;durP1;ratioP1;P1;durP2;ratioP2;P2;SDS_P1;SDS_P2;PMS_P1;PMS_P2;Temp;Humidity;BMP_temperature;BMP_pressure;BME280_temperature;BME280_humidity;BME280_pressure;Samples;Min_cycle;Max_cycle;Signal;HPM_P1;HPM_P2
2023/05/20 08:06:25;;;;;;;8.32;3.45;;;;;;;15.45;63.76;102021.00;5089467;27;20405;-73
2023/05/20 08:08:50;;;;;;;6.85;3.50;;;;;;;15.49;62.53;102027.63;5088624;28;20040;-72
2023/05/20 08:11:15;;;;;;;5.47;3.38;;;;;;;15.53;61.01;102028.84;5071892;28;20115;-73
2023/05/20 08:13:41;;;;;;;8.30;3.50;;;;;;;15.57;61.77;102021.88;5089874;28;20052;-73
2023/05/20 08:16:06;;;;;;;4.88;3.28;;;;;;;15.63;61.67;102009.22;5090232;28;20056;-76
2023/05/20 08:18:36;;;;;;;9.73;3.22;;;;;;;15.66;61.62;102008.75;5071025;28;20039;-75
2023/05/20 08:21:02;;;;;;;7.30;3.85;;;;;;;15.68;60.72;102012.06;5089909;28;20036;-70
2023/05/20 08:23:27;;;;;;;7.00;3.30;;;;;;;15.76;60.87;102009.88;5088374;28;20024;-70
2023/05/20 08:25:52;;;;;;;4.88;3.17;;;;;;;15.80;61.75;102010.25;5089446;28;20025;-72
2023/05/20 08:28:17;;;;;;;5.72;3.15;;;;;;;15.82;59.85;102002.69;5089684;28;20374;-71
2023/05/20 08:30:43;;;;;;;7.13;3.50;;;;;;;15.89;60.88;102002.59;5079607;28;20016;-71
2023/05/20 08:33:08;;;;;;;7.40;3.70;;;;;;;15.94;59.35;102003.56;5081998;28;20090;-74
2023/05/20 08:35:34;;;;;;;6.03;3.40;;;;;;;16.04;59.27;102004.88;5070036;28;20460;-71
2023/05/20 08:38:00;;;;;;;8.15;3.35;;;;;;;16.13;57.30;101998.00;5085738;28;20027;-76
2023/05/20 08:40:26;;;;;;;7.45;3.40;;;;;;;16.18;58.01;101991.84;5091058;28;20059;-72
2023/05/20 08:42:51;;;;;;;6.00;3.20;;;;;;;16.24;58.02;102002.66;5078394;28;20039;-71
2023/05/20 08:45:18;;;;;;;7.03;3.60;;;;;;;16.35;57.95;101994.72;5088610;28;20394;-72
2023/05/20 08:47:44;;;;;;;12.85;3.97;;;;;;;16.34;56.85;101988.44;5089144;28;20448;-73
2023/05/20 08:50:11;;;;;;;11.50;3.55;;;;;;;16.36;56.28;101996.38;5089306;28;20040;-78
2023/05/20 08:52:42;;;;;;;9.32;3.45;;;;;;;16.36;55.98;101989.00;5089099;28;20036;-69
2023/05/20 08:55:10;;;;;;;8.67;3.10;;;;;;;16.45;56.97;101994.97;5083225;28;20078;-69
2023/05/20 08:57:37;;;;;;;5.95;3.90;;;;;;;16.57;57.24;101994.97;5080367;28;20039;-72
2023/05/20 09:00:08;;;;;;;8.48;3.90;;;;;;;16.55;56.84;101987.03;5087228;28;20047;-70
2023/05/20 09:02:37;;;;;;;8.55;3.20;;;;;;;16.63;57.49;101991.28;5084794;28;20044;-69
2023/05/20 09:05:03;;;;;;;5.55;3.20;;;;;;;16.66;55.59;101985.34;5088908;28;20044;-69
2023/05/20 09:07:29;;;;;;;8.60;3.40;;;;;;;16.76;56.31;101985.59;5089074;28;20473;-70
2023/05/20 09:09:56;;;;;;;5.47;3.15;;;;;;;16.78;55.68;101971.69;5088746;28;20029;-69
2023/05/20 09:12:21;;;;;;;8.52;3.30;;;;;;;16.86;55.03;101984.16;5088286;28;20119;-71
2023/05/20 09:14:46;;;;;;;6.93;2.78;;;;;;;16.94;55.35;101976.44;5081280;28;21493;-70
2023/05/20 09:17:12;;;;;;;9.63;3.20;;;;;;;17.04;54.84;101975.81;5075693;28;21663;-71
2023/05/20 09:19:37;;;;;;;6.45;3.17;;;;;;;17.02;54.49;101968.94;5066109;28;20454;-71
2023/05/20 09:22:04;;;;;;;8.02;3.38;;;;;;;17.08;54.57;101976.19;5054881;28;20505;-71
2023/05/20 09:24:29;;;;;;;7.47;3.30;;;;;;;17.07;53.01;101975.34;5066967;28;20025;-69
2023/05/20 09:26:55;;;;;;;5.15;3.00;;;;;;;17.02;53.19;101961.56;5074908;28;20028;-71
2023/05/20 09:29:20;;;;;;;12.40;3.03;;;;;;;17.15;54.40;101966.78;5074979;28;20444;-70
2023/05/20 09:31:46;;;;;;;7.40;3.05;;;;;;;17.25;54.71;101963.41;5073911;28;20036;-73
2023/05/20 09:34:12;;;;;;;7.82;2.83;;;;;;;17.30;53.68;101963.53;5067279;28;20032;-71
2023/05/20 09:36:38;;;;;;;7.68;3.20;;;;;;;17.31;52.91;101964.34;5073796;28;20509;-71
2023/05/20 09:39:05;;;;;;;6.85;3.30;;;;;;;17.40;53.44;101965.63;5067423;28;20511;-69
2023/05/20 09:41:38;;;;;;;5.35;2.72;;;;;;;17.37;52.70;101968.84;5074552;28;20038;-74
2023/05/20 09:44:06;;;;;;;5.10;3.20;;;;;;;17.45;53.51;101968.47;5073279;28;20612;-71
2023/05/20 09:46:33;;;;;;;8.13;3.10;;;;;;;17.45;53.28;101971.19;5074384;28;20024;-71
2023/05/20 09:49:01;;;;;;;11.20;3.00;;;;;;;17.66;53.68;101963.38;5074082;28;20028;-74
2023/05/20 09:51:28;;;;;;;5.15;2.95;;;;;;;17.66;52.77;101963.38;5074363;28;20035;-73
2023/05/20 09:53:55;;;;;;;7.47;3.05;;;;;;;17.62;52.84;101975.88;5073374;28;20032;-74
2023/05/20 09:56:24;;;;;;;5.28;3.30;;;;;;;17.59;52.72;101979.09;5071067;28;20036;-75
2023/05/20 09:58:50;;;;;;;8.65;3.13;;;;;;;17.58;53.56;101969.25;5072854;28;20418;-74
2023/05/20 10:01:15;;;;;;;8.80;3.67;;;;;;;17.63;53.91;101964.66;5062537;28;20037;-70
2023/05/20 10:03:41;;;;;;;6.07;3.25;;;;;;;17.67;53.63;101960.38;5072921;28;20035;-72
2023/05/20 10:06:33;;;;;;;6.75;3.22;;;;;;;17.74;53.04;101965.72;5073585;28;20040;-70
2023/05/20 10:09:40;;;;;;;6.88;3.25;;;;;;;17.64;53.44;101954.56;5071686;28;20028;-70
2023/05/20 10:12:20;;;;;;;7.10;3.13;;;;;;;17.57;53.24;101941.03;5073191;28;20035;-77
2023/05/20 10:14:53;;;;;;;10.98;3.38;;;;;;;17.52;53.32;101941.75;5070337;28;20036;-74
2023/05/20 10:17:47;;;;;;;4.47;3.00;;;;;;;17.61;53.13;101938.66;5055773;28;20036;-68
2023/05/20 10:20:12;;;;;;;9.57;3.45;;;;;;;17.59;52.57;101943.50;5061887;28;20094;-73
2023/05/20 10:22:39;;;;;;;4.75;2.95;;;;;;;17.69;51.99;101943.72;5060917;28;20472;-72
2023/05/20 10:25:06;;;;;;;9.50;3.17;;;;;;;17.62;52.19;101934.81;5073747;28;20482;-69
2023/05/20 10:27:42;;;;;;;5.97;3.15;;;;;;;17.85;52.12;101937.44;5073449;28;20551;-70
2023/05/20 10:30:15;;;;;;;5.80;2.72;;;;;;;17.89;52.30;101924.94;5053636;28;20095;-69
2023/05/20 10:32:48;;;;;;;6.13;2.88;;;;;;;17.82;51.75;101926.16;5075310;28;20077;-70
2023/05/20 10:35:21;;;;;;;7.22;3.10;;;;;;;17.88;50.99;101928.72;5077901;28;20040;-70
2023/05/20 10:37:47;;;;;;;7.60;2.80;;;;;;;17.91;51.39;101927.44;5084376;28;20067;-69
2023/05/20 10:40:13;;;;;;;3.92;2.70;;;;;;;18.03;51.41;101928.19;5063176;28;20033;-70
2023/05/20 10:42:40;;;;;;;8.13;3.10;;;;;;;17.92;50.64;101923.63;5073413;28;20138;-70
2023/05/20 10:45:06;;;;;;;5.40;3.08;;;;;;;17.93;50.84;101924.44;5072027;28;20391;-70
2023/05/20 10:47:33;;;;;;;7.78;3.10;;;;;;;18.01;51.00;101911.19;5072477;28;20040;-70
2023/05/20 10:50:00;;;;;;;4.78;2.90;;;;;;;18.12;51.35;101903.13;5073088;28;20420;-70
2023/05/20 10:52:25;;;;;;;5.40;2.92;;;;;;;18.38;50.96;101907.88;5073442;28;20037;-69
2023/05/20 10:54:58;;;;;;;4.13;2.95;;;;;;;18.44;50.16;101903.31;5072067;28;20028;-69
2023/05/20 10:57:27;;;;;;;5.97;2.72;;;;;;;18.53;50.18;101914.69;5064455;28;20044;-69
2023/05/20 10:59:54;;;;;;;7.03;2.85;;;;;;;18.64;50.54;101910.97;5067862;28;20029;-70
2023/05/20 11:02:27;;;;;;;5.20;3.10;;;;;;;18.76;50.18;101908.13;5066457;28;20052;-70
2023/05/20 11:04:54;;;;;;;5.35;3.33;;;;;;;18.88;49.64;101897.88;5052922;28;20041;-69
2023/05/20 11:07:30;;;;;;;9.05;3.30;;;;;;;18.99;49.85;101901.59;5051943;28;20036;-69
2023/05/20 11:09:56;;;;;;;6.70;3.05;;;;;;;19.07;49.13;101892.91;5068021;28;20032;-70
2023/05/20 11:12:26;;;;;;;4.07;2.83;;;;;;;19.15;48.32;101894.38;5063868;28;20033;-69
2023/05/20 11:14:52;;;;;;;8.73;2.90;;;;;;;19.21;48.66;101893.34;5053188;28;20033;-70
2023/05/20 11:17:20;;;;;;;6.45;2.97;;;;;;;19.26;48.37;101889.81;5071348;28;20059;-70
2023/05/20 11:19:46;;;;;;;11.05;3.08;;;;;;;19.31;48.61;101889.88;5071133;28;20509;-70
2023/05/20 11:22:12;;;;;;;5.38;2.55;;;;;;;19.35;48.18;101881.94;5068092;28;20198;-70
2023/05/20 11:24:37;;;;;;;6.05;2.65;;;;;;;19.48;49.43;101879.63;5052879;28;20170;-76
2023/05/20 11:27:03;;;;;;;3.90;2.80;;;;;;;19.48;47.72;101882.34;5058397;28;20040;-78
2023/05/20 11:29:31;;;;;;;10.00;3.08;;;;;;;19.62;48.05;101884.69;5066422;28;20032;-73
2023/05/20 11:31:57;;;;;;;5.28;2.50;;;;;;;19.82;48.41;101878.56;5071016;28;20052;-72
2023/05/20 11:34:23;;;;;;;4.07;2.88;;;;;;;19.95;47.61;101864.38;5070279;28;20076;-71
2023/05/20 11:36:55;;;;;;;2.85;2.50;;;;;;;20.01;47.90;101874.31;5067237;28;20413;-71
2023/05/20 11:39:21;;;;;;;2.95;2.55;;;;;;;20.03;47.78;101870.47;5072836;28;20033;-71
2023/05/20 11:41:46;;;;;;;6.40;2.85;;;;;;;20.08;46.79;101878.75;5072160;28;20536;-71
2023/05/20 11:44:12;;;;;;;7.05;2.85;;;;;;;20.00;47.16;101860.84;5072209;28;20479;-70
2023/05/20 11:46:46;;;;;;;5.30;2.65;;;;;;;19.95;46.90;101872.63;5069739;28;20042;-69
2023/05/20 11:49:15;;;;;;;4.40;2.53;;;;;;;20.10;47.72;101858.16;5071825;28;20055;-69
2023/05/20 11:51:42;;;;;;;6.68;2.53;;;;;;;20.22;46.82;101863.47;5072688;28;20035;-72
2023/05/20 11:54:08;;;;;;;10.45;2.63;;;;;;;20.38;47.65;101856.13;5072367;28;20040;-74
2023/05/20 11:56:36;;;;;;;5.43;2.65;;;;;;;20.41;47.25;101865.75;5072539;28;20050;-72
2023/05/20 11:59:02;;;;;;;3.85;2.70;;;;;;;20.49;45.97;101852.34;5072360;28;20032;-69
2023/05/20 12:01:36;;;;;;;5.47;2.78;;;;;;;20.61;46.23;101854.88;5069047;28;20491;-70
2023/05/20 12:04:02;;;;;;;5.53;2.50;;;;;;;20.74;45.24;101853.56;5072194;28;20033;-71
2023/05/20 12:06:28;;;;;;;7.30;2.63;;;;;;;20.84;44.81;101844.53;5071133;28;20115;-72
2023/05/20 12:08:53;;;;;;;5.35;2.60;;;;;;;20.71;45.45;101849.47;5067502;28;20138;-69
2023/05/20 12:11:18;;;;;;;4.50;2.45;;;;;;;20.60;45.44;101844.97;5052414;28;20056;-73
2023/05/20 12:13:44;;;;;;;7.07;2.67;;;;;;;20.48;45.59;101845.19;5070551;28;20098;-73
2023/05/20 12:16:09;;;;;;;4.30;2.80;;;;;;;20.40;46.44;101831.16;5072425;28;20036;-70
2023/05/20 12:18:34;;;;;;;3.72;2.60;;;;;;;20.33;46.23;101836.88;5062205;28;20025;-73
2023/05/20 12:21:00;;;;;;;5.55;2.63;;;;;;;20.33;46.94;101832.19;5052099;28;20445;-71
2023/05/20 12:23:25;;;;;;;10.57;2.70;;;;;;;20.31;45.94;101826.13;5068803;28;20448;-72
2023/05/20 12:25:51;;;;;;;3.65;2.60;;;;;;;20.49;46.08;101827.59;5072088;28;20440;-70
2023/05/20 12:28:16;;;;;;;5.03;2.53;;;;;;;20.56;45.78;101821.84;5072303;28;20032;-72
2023/05/20 12:30:42;;;;;;;2.92;2.53;;;;;;;20.60;46.45;101816.66;5072208;28;20039;-76
2023/05/20 12:33:08;;;;;;;5.13;2.63;;;;;;;20.69;45.79;101824.13;5067549;28;20518;-73
2023/05/20 12:35:38;;;;;;;4.22;2.80;;;;;;;20.69;45.75;101826.88;5066350;28;20032;-73
2023/05/20 12:38:04;;;;;;;4.63;2.50;;;;;;;20.64;45.38;101823.28;5067260;28;20040;-73
2023/05/20 12:40:29;;;;;;;7.28;2.40;;;;;;;20.76;45.96;101828.53;5070342;28;20029;-71
2023/05/20 12:42:54;;;;;;;8.07;2.60;;;;;;;20.82;45.77;101833.81;5070518;28;20037;-73
2023/05/20 12:45:20;;;;;;;6.47;2.60;;;;;;;20.89;46.00;101831.63;5072046;28;20029;-74
2023/05/20 12:47:45;;;;;;;6.93;2.90;;;;;;;21.04;45.38;101824.50;5072071;28;20040;-71
2023/05/20 12:50:10;;;;;;;5.25;2.90;;;;;;;21.18;44.82;101814.63;5071818;28;20098;-72
2023/05/20 12:52:35;;;;;;;8.40;2.92;;;;;;;21.33;45.74;101822.09;5070127;28;20020;-72
2023/05/20 12:55:01;;;;;;;7.22;2.85;;;;;;;21.40;45.14;101827.31;5056686;28;20065;-72
2023/05/20 12:57:26;;;;;;;8.35;2.95;;;;;;;21.30;44.29;101827.28;5073538;28;20059;-73
2023/05/20 12:59:52;;;;;;;5.47;2.60;;;;;;;21.30;45.49;101819.84;5075503;28;20074;-73
2023/05/20 13:02:18;;;;;;;8.80;2.80;;;;;;;21.21;45.51;101816.84;5070853;28;20135;-74
2023/05/20 13:04:43;;;;;;;4.28;2.75;;;;;;;21.22;45.18;101823.16;5075596;28;20045;-73
2023/05/20 13:07:08;;;;;;;3.60;2.75;;;;;;;21.20;45.83;101812.41;5074867;28;20097;-73
2023/05/20 13:09:34;;;;;;;4.95;2.60;;;;;;;21.34;46.11;101818.22;5058512;28;20486;-72
2023/05/20 13:12:00;;;;;;;10.50;2.50;;;;;;;21.43;45.75;101821.25;5056727;28;20021;-79
2023/05/20 13:14:26;;;;;;;6.60;2.78;;;;;;;21.50;44.88;101821.00;5075381;28;20067;-73
2023/05/20 13:16:54;;;;;;;3.85;2.60;;;;;;;21.54;45.12;101813.84;5073844;28;20060;-76
2023/05/20 13:19:22;;;;;;;5.82;2.50;;;;;;;21.52;44.80;101816.88;5075550;28;20042;-72
2023/05/20 13:21:53;;;;;;;2.92;2.33;;;;;;;21.45;44.64;101820.97;5074329;28;20119;-74
2023/05/20 13:24:18;;;;;;;3.47;2.50;;;;;;;21.43;44.54;101813.00;5074012;28;20040;-72
2023/05/20 13:26:44;;;;;;;4.47;2.53;;;;;;;21.58;45.86;101812.19;5073710;28;20039;-72
2023/05/20 13:29:10;;;;;;;4.35;2.88;;;;;;;21.61;44.53;101816.34;5070757;28;20066;-75
2023/05/20 13:31:36;;;;;;;6.57;2.97;;;;;;;21.57;45.35;101814.13;5073170;28;20029;-73
2023/05/20 13:34:01;;;;;;;3.55;2.50;;;;;;;21.53;45.01;101821.28;5073706;28;20024;-72
2023/05/20 13:36:27;;;;;;;8.32;3.15;;;;;;;21.46;45.17;101815.19;5062820;28;20032;-72
2023/05/20 13:38:52;;;;;;;5.28;2.50;;;;;;;21.40;45.44;101814.34;5066560;28;20025;-75
2023/05/20 13:41:18;;;;;;;5.32;2.67;;;;;;;21.26;44.37;101807.75;5072793;28;20037;-79
2023/05/20 13:43:43;;;;;;;5.38;2.72;;;;;;;21.18;44.91;101808.28;5073172;28;20061;-80
2023/05/20 13:46:08;;;;;;;5.97;2.58;;;;;;;21.15;44.99;101797.81;5074340;28;20380;-80
2023/05/20 13:48:34;;;;;;;7.38;2.50;;;;;;;21.09;45.34;101783.25;5074883;28;20115;-80
2023/05/20 13:51:00;;;;;;;5.18;2.50;;;;;;;21.08;45.32;101794.53;5072643;28;20035;-73
2023/05/20 13:53:26;;;;;;;4.82;2.60;;;;;;;21.00;45.40;101791.22;5074117;28;20039;-80
2023/05/20 13:55:51;;;;;;;4.53;2.58;;;;;;;21.01;45.53;101789.28;5072089;28;20025;-74
2023/05/20 13:58:17;;;;;;;4.57;2.50;;;;;;;20.89;44.82;101792.28;5074613;28;20103;-73
2023/05/20 14:00:42;;;;;;;3.42;2.40;;;;;;;20.95;46.15;101790.38;5072099;28;20025;-73
2023/05/20 14:03:09;;;;;;;4.22;2.60;;;;;;;20.88;45.04;101790.66;5071498;28;20041;-73
2023/05/20 14:05:34;;;;;;;4.35;2.60;;;;;;;20.94;45.31;101783.19;5074128;28;20079;-73
2023/05/20 14:08:00;;;;;;;6.93;2.70;;;;;;;20.94;44.67;101796.97;5073286;28;20068;-73
2023/05/20 14:10:27;;;;;;;4.72;2.40;;;;;;;21.00;44.63;101791.22;5067470;28;20029;-72
2023/05/20 14:12:53;;;;;;;4.22;2.60;;;;;;;20.99;44.64;101792.31;5061820;28;20389;-75
2023/05/20 14:15:18;;;;;;;2.75;2.53;;;;;;;20.98;44.46;101785.13;5062255;28;20040;-71
2023/05/20 14:17:43;;;;;;;4.50;2.28;;;;;;;21.02;44.87;101783.50;5059813;28;20036;-72
2023/05/20 14:20:09;;;;;;;6.18;2.55;;;;;;;21.00;44.93;101790.38;5071888;28;20036;-80
2023/05/20 14:22:34;;;;;;;5.13;2.47;;;;;;;21.13;44.15;101778.00;5073667;28;20029;-71
2023/05/20 14:25:00;;;;;;;6.68;2.22;;;;;;;21.25;45.07;101782.13;5071200;28;20029;-72
2023/05/20 14:27:25;;;;;;;4.80;2.47;;;;;;;21.25;44.55;101781.31;5071402;28;20060;-71
2023/05/20 14:29:50;;;;;;;3.10;2.30;;;;;;;21.34;44.92;101770.59;5072832;28;20043;-70
2023/05/20 14:32:16;;;;;;;4.35;2.38;;;;;;;21.35;44.72;101766.75;5072680;28;20033;-72
2023/05/20 14:34:41;;;;;;;2.55;2.30;;;;;;;21.31;43.99;101766.44;5073631;28;20039;-73
2023/05/20 14:37:08;;;;;;;6.05;2.35;;;;;;;21.28;43.90;101764.25;5070395;28;20360;-72
2023/05/20 14:39:34;;;;;;;3.97;2.33;;;;;;;21.23;44.00;101770.59;5064040;28;20495;-72
2023/05/20 14:42:00;;;;;;;8.32;2.28;;;;;;;21.18;44.92;101754.09;5073300;28;20028;-73
2023/05/20 14:44:25;;;;;;;4.93;2.40;;;;;;;21.16;44.61;101760.94;5066221;28;20490;-73
2023/05/20 14:46:50;;;;;;;6.18;2.80;;;;;;;21.04;44.29;101763.97;5072703;28;20035;-73
2023/05/20 14:49:16;;;;;;;3.83;2.53;;;;;;;20.98;45.23;101752.13;5070990;28;20149;-73
2023/05/20 14:51:41;;;;;;;3.08;2.47;;;;;;;20.99;45.30;101753.78;5056038;28;20032;-73
2023/05/20 14:54:08;;;;;;;5.28;2.67;;;;;;;20.97;45.13;101753.25;5053248;28;20049;-73
2023/05/20 14:56:33;;;;;;;4.63;2.90;;;;;;;21.08;45.67;101750.50;5058187;28;20033;-73
2023/05/20 14:58:58;;;;;;;6.32;2.63;;;;;;;21.09;44.58;101743.88;5053271;28;20029;-73
2023/05/20 15:01:24;;;;;;;4.20;2.63;;;;;;;21.14;44.31;101752.16;5055440;28;20108;-73
2023/05/20 15:03:49;;;;;;;5.18;3.17;;;;;;;21.13;44.33;101745.81;5055306;28;20055;-73
2023/05/20 15:06:14;;;;;;;9.07;5.43;;;;;;;21.05;44.36;101741.69;5072723;28;20044;-73
2023/05/20 15:08:40;;;;;;;5.82;2.72;;;;;;;20.91;44.33;101737.81;5057686;28;20150;-73
2023/05/20 15:11:06;;;;;;;3.42;3.13;;;;;;;20.97;44.47;101735.88;5059053;28;20024;-72
2023/05/20 15:13:31;;;;;;;7.78;3.08;;;;;;;21.00;44.70;101722.44;5069572;28;20033;-72
2023/05/20 15:15:56;;;;;;;6.57;2.97;;;;;;;21.03;44.66;101724.63;5066629;28;20036;-73
2023/05/20 15:18:21;;;;;;;5.40;2.85;;;;;;;21.06;44.74;101724.06;5067365;28;20483;-72
2023/05/20 15:20:47;;;;;;;6.05;2.58;;;;;;;21.19;43.89;101725.44;5063659;28;20036;-75
2023/05/20 15:23:12;;;;;;;6.28;3.00;;;;;;;21.20;43.76;101729.03;5069238;28;20055;-73
2023/05/20 15:25:37;;;;;;;3.40;2.47;;;;;;;21.15;44.42;101726.25;5066741;28;20097;-72
2023/05/20 15:28:03;;;;;;;3.75;2.50;;;;;;;21.13;44.20;101734.78;5071057;28;20033;-74
2023/05/20 15:30:28;;;;;;;4.05;2.30;;;;;;;21.19;44.04;101719.13;5072797;28;20461;-74
2023/05/20 15:32:53;;;;;;;2.70;2.40;;;;;;;21.17;44.30;101713.88;5072863;28;20037;-74
2023/05/20 15:35:19;;;;;;;5.77;2.87;;;;;;;21.16;44.02;101720.47;5072441;28;20533;-76
2023/05/20 15:37:44;;;;;;;6.15;3.63;;;;;;;21.15;43.52;101715.25;5071258;28;20294;-76
2023/05/20 15:40:10;;;;;;;6.15;2.47;;;;;;;21.15;44.33;101715.25;5072376;28;20032;-77
2023/05/20 15:42:35;;;;;;;6.43;2.50;;;;;;;21.56;43.78;101715.28;5072142;28;20096;-74
2023/05/20 15:45:00;;;;;;;4.30;2.55;;;;;;;21.83;43.07;101714.94;5068306;28;20066;-76
2023/05/20 15:47:26;;;;;;;5.35;2.20;;;;;;;22.01;42.07;101716.25;5070440;28;20107;-74
2023/05/20 15:49:53;;;;;;;5.22;2.40;;;;;;;22.00;42.86;101714.59;5072678;28;20028;-75
2023/05/20 15:52:18;;;;;;;6.00;2.40;;;;;;;21.85;42.92;101711.88;5069464;28;20032;-75
2023/05/20 15:54:44;;;;;;;8.43;2.50;;;;;;;21.69;42.57;101711.91;5071567;28;20040;-76
2023/05/20 15:57:09;;;;;;;6.60;2.78;;;;;;;21.63;43.62;101707.53;5070709;28;20031;-78
2023/05/20 15:59:34;;;;;;;4.90;2.17;;;;;;;21.67;43.02;101705.88;5070844;28;20024;-77
2023/05/20 16:02:00;;;;;;;4.05;2.72;;;;;;;21.74;42.85;101706.41;5067636;28;20040;-75
